»·PEaware :: DCM205 KJAC-KDEN

DCM205 :: KJAC-KDEN

FLIGHT INFORMATION

Flight Status: Arrived
Operator:
DotCom
More flights by this operator :: More flights under this callsign
Pilot: Chris S. (2433)
Aircraft: AIRBUS A320
(A320)
More flights by this aircraft type
Origin: KJAC Jackson Hole
United States
Destination: KDEN Denver Intl
United States
More flights between these airports :: More routes between these airports
Route: +ALPIN2 SWEAT TOFUU AUTIM RAMMS8
File this flight plan on PilotEdge
Remarks:
Altitude:
(Current/Filed)
31,000ft
Speed:
(Current/Filed)
450kts
Departed: 02-Apr-20 07:23 AM
Arrived: 02-Apr-20 08:35 AM
Distance/Time
Traveled:
351nm/1:12
Distance/Time
To Go:
Arrived

Flight Plot

Page will automatically refresh every two minutes.

Flight plan parsing failed; only flown route is shown


Map Options




Map Legend


Flown Route
Filed Route
Departure Airport
Arrival Airport
Navaid (VOR, NDB)
Fix

Horizontal Profiles

Position Reports

Time Latitude Longitude Heading Altitude Ground
Speed
02-Apr-20 07:07 43.603486 -110.737092 109 6465ft 0kts
02-Apr-20 07:08 43.603486 -110.737092 109 6465ft 0kts
02-Apr-20 07:09 43.603486 -110.737092 109 6465ft 0kts
02-Apr-20 07:10 43.603486 -110.737092 109 6465ft 0kts
02-Apr-20 07:11 43.603486 -110.737092 109 6465ft 0kts
02-Apr-20 07:12 43.603486 -110.737092 109 6465ft 0kts
02-Apr-20 07:13 43.603486 -110.737092 109 6465ft 0kts
02-Apr-20 07:14 43.603486 -110.737092 109 6465ft 0kts
02-Apr-20 07:15 43.603486 -110.737092 109 6465ft 0kts
02-Apr-20 07:16 43.603486 -110.737092 109 6465ft 0kts
02-Apr-20 07:17 43.603486 -110.737092 109 6465ft 0kts
02-Apr-20 07:18 43.603414 -110.737079 221 6465ft 0kts
02-Apr-20 07:19 43.605238 -110.737156 19 6465ft 16kts
02-Apr-20 07:20 43.609957 -110.734862 17 6465ft 18kts
02-Apr-20 07:21 43.614879 -110.732656 338 6465ft 15kts
02-Apr-20 07:22 43.612279 -110.735336 199 6465ft 80kts
02-Apr-20 07:23 43.575124 -110.755432 207 8156ft 155kts
02-Apr-20 07:24 43.526425 -110.787714 206 9333ft 226kts
02-Apr-20 07:25 43.460614 -110.830720 206 10738ft 302kts
02-Apr-20 07:26 43.376958 -110.885163 206 12534ft 354kts
02-Apr-20 07:27 43.286579 -110.943822 207 15149ft 364kts
02-Apr-20 07:28 43.187639 -110.945331 147 17445ft 388kts
02-Apr-20 07:29 43.111015 -110.837320 136 19477ft 402kts
02-Apr-20 07:30 43.030870 -110.727668 139 21339ft 413kts
02-Apr-20 07:31 42.949149 -110.614421 140 23021ft 422kts
02-Apr-20 07:32 42.865404 -110.499415 142 24526ft 431kts
02-Apr-20 07:33 42.779798 -110.382252 143 25835ft 441kts
02-Apr-20 07:34 42.692325 -110.262941 143 27027ft 450kts
02-Apr-20 07:35 42.603525 -110.140405 138 28246ft 463kts
02-Apr-20 07:36 42.567446 -109.965785 100 29537ft 506kts
02-Apr-20 07:37 42.554013 -109.776801 103 30838ft 502kts
02-Apr-20 07:38 42.539382 -109.590802 102 30962ft 492kts
02-Apr-20 07:39 42.524361 -109.406951 103 30975ft 490kts
02-Apr-20 07:40 42.509455 -109.223462 103 30995ft 490kts
02-Apr-20 07:41 42.494072 -109.040462 103 31044ft 489kts
02-Apr-20 07:42 42.478444 -108.857298 104 31035ft 488kts
02-Apr-20 07:43 42.462653 -108.675481 104 31037ft 487kts
02-Apr-20 07:44 42.442456 -108.495220 123 30990ft 469kts
02-Apr-20 07:45 42.355134 -108.385768 146 31048ft 443kts
02-Apr-20 07:46 42.265841 -108.271597 151 31037ft 438kts
02-Apr-20 07:47 42.172884 -108.164213 149 31046ft 440kts
02-Apr-20 07:48 42.081197 -108.056420 150 31040ft 435kts
02-Apr-20 07:49 41.989764 -107.949870 150 30966ft 432kts
02-Apr-20 07:50 41.901457 -107.840018 142 30932ft 445kts
02-Apr-20 07:51 41.819129 -107.715837 149 30942ft 436kts
02-Apr-20 07:52 41.743557 -107.579464 133 30903ft 465kts
02-Apr-20 07:53 41.667127 -107.441684 139 30943ft 459kts
02-Apr-20 07:54 41.583281 -107.316151 145 30988ft 446kts
02-Apr-20 07:55 41.493739 -107.203580 149 30947ft 437kts
02-Apr-20 07:56 41.404324 -107.096826 147 30900ft 441kts
02-Apr-20 07:57 41.314708 -106.984670 146 30903ft 444kts
02-Apr-20 07:58 41.229417 -106.861953 141 30913ft 455kts
02-Apr-20 07:59 41.145929 -106.735851 141 30969ft 455kts
02-Apr-20 08:00 41.062446 -106.610040 140 30916ft 454kts
02-Apr-20 08:01 40.978935 -106.484752 140 30851ft 454kts
02-Apr-20 08:02 40.895266 -106.359308 136 30834ft 460kts
02-Apr-20 08:03 40.852933 -106.194329 95 30873ft 498kts
02-Apr-20 08:04 40.861581 -106.012445 88 30235ft 490kts
02-Apr-20 08:05 40.857505 -105.838038 115 27605ft 459kts
02-Apr-20 08:06 40.804388 -105.690547 120 25158ft 436kts
02-Apr-20 08:07 40.750552 -105.552703 140 22883ft 404kts
02-Apr-20 08:08 40.676346 -105.445088 133 20664ft 395kts
02-Apr-20 08:09 40.610732 -105.330467 133 18440ft 387kts
02-Apr-20 08:10 40.541747 -105.225669 146 17021ft 370kts
02-Apr-20 08:11 40.462692 -105.143657 148 15743ft 356kts
02-Apr-20 08:12 40.385410 -105.064799 147 13835ft 348kts
02-Apr-20 08:13 40.307062 -104.994322 152 11875ft 336kts
02-Apr-20 08:15 40.229916 -104.927723 145 11049ft 331kts
02-Apr-20 08:16 40.157086 -104.854116 145 11061ft 330kts
02-Apr-20 08:17 40.081684 -104.787848 168 11059ft 322kts
02-Apr-20 08:18 39.993485 -104.774617 177 11058ft 319kts
02-Apr-20 08:19 39.905326 -104.765448 177 11031ft 316kts
02-Apr-20 08:20 39.817498 -104.756327 177 11017ft 316kts
02-Apr-20 08:21 39.729540 -104.747160 177 10992ft 317kts
02-Apr-20 08:22 39.641530 -104.737936 177 10984ft 317kts
02-Apr-20 08:23 39.553717 -104.728690 177 10982ft 317kts
02-Apr-20 08:24 39.465362 -104.719393 175 10975ft 319kts
02-Apr-20 08:25 39.409123 -104.641919 92 10643ft 307kts
02-Apr-20 08:26 39.455598 -104.576082 354 9946ft 249kts
02-Apr-20 08:27 39.500186 -104.633747 298 8781ft 235kts
02-Apr-20 08:28 39.538573 -104.696311 356 7955ft 229kts
02-Apr-20 08:29 39.601863 -104.690664 1 7971ft 215kts
02-Apr-20 08:30 39.657383 -104.689638 0 7980ft 195kts
02-Apr-20 08:30 39.702223 -104.689101 0 7982ft 195kts
02-Apr-20 08:32 39.763861 -104.688387 1 7432ft 164kts
02-Apr-20 08:33 39.804829 -104.687908 2 6623ft 140kts
02-Apr-20 08:33 39.837282 -104.687543 2 6002ft 139kts
02-Apr-20 08:35 39.877231 -104.687060 1 5445ft 26kts
02-Apr-20 08:36 39.876596 -104.685852 151 5445ft 0kts

Navigation Log

Ident Type
Flight plan parsing failed, navigation log unavailable